Time,TemperatureF,DewpointF,PressureIn,WindDirection,WindDirectionDegrees,WindSpeedMPH,WindSpeedGustMPH,Humidity,HourlyPrecipIn,Conditions,Clouds,dailyrainin,SolarRadiationWatts/m^2,SoftwareType,DateUTC
2013-05-11 00:01:00,61.6,55.0,29.91,SSW,210,7.0,15.0,78,0.00,,,0.00,0,weatherlink.com 1.10,2013-05-11 04:01:00,
2013-05-11 00:16:00,62.2,55.0,29.91,West,269,11.0,12.0,76,0.00,,,0.00,0,weatherlink.com 1.10,2013-05-11 04:16:00,
2013-05-11 00:31:00,63.3,55.0,29.90,SW,234,6.0,15.0,73,0.00,,,0.00,0,weatherlink.com 1.10,2013-05-11 04:31:00,
2013-05-11 00:46:00,63.4,54.0,29.90,WSW,239,5.0,13.0,72,0.00,,,0.00,0,weatherlink.com 1.10,2013-05-11 04:46:00,
2013-05-11 01:01:00,63.6,54.0,29.89,West,259,16.0,24.0,71,0.00,,,0.00,0,weatherlink.com 1.10,2013-05-11 05:01:00,
2013-05-11 01:16:00,63.7,54.0,29.89,SW,236,12.0,22.0,70,0.00,,,0.00,0,weatherlink.com 1.10,2013-05-11 05:16:00,
2013-05-11 01:31:00,63.7,54.0,29.88,WSW,238,16.0,22.0,71,0.00,,,0.00,0,weatherlink.com 1.10,2013-05-11 05:31:00,
2013-05-11 01:46:00,63.8,54.0,29.88,West,265,3.0,22.0,71,0.00,,,0.00,0,weatherlink.com 1.10,2013-05-11 05:46:00,
2013-05-11 02:01:00,63.7,54.0,29.87,SW,235,7.0,25.0,71,0.00,,,0.00,0,weatherlink.com 1.10,2013-05-11 06:01:00,
2013-05-11 02:16:00,62.5,55.0,29.86,SSW,201,8.0,20.0,75,0.00,,,0.00,0,weatherlink.com 1.10,2013-05-11 06:16:00,
2013-05-11 02:31:00,60.0,54.0,29.86,SW,227,12.0,18.0,81,0.00,,,0.00,0,weatherlink.com 1.10,2013-05-11 06:31:00,
2013-05-11 02:46:00,61.0,54.0,29.85,WSW,242,15.0,21.0,79,0.00,,,0.00,0,weatherlink.com 1.10,2013-05-11 06:46:00,
2013-05-11 03:01:00,59.4,54.0,29.85,SW,231,6.0,15.0,83,0.00,,,0.00,0,weatherlink.com 1.10,2013-05-11 07:01:00,
2013-05-11 03:17:00,58.9,54.0,29.84,SSW,208,10.0,16.0,83,0.00,,,0.00,0,weatherlink.com 1.10,2013-05-11 07:17:00,
2013-05-11 03:32:00,58.6,54.0,29.83,WSW,246,9.0,17.0,84,0.00,,,0.00,0,weatherlink.com 1.10,2013-05-11 07:32:00,
2013-05-11 03:47:00,58.3,54.0,29.82,West,274,7.0,16.0,84,0.00,,,0.00,0,weatherlink.com 1.10,2013-05-11 07:47:00,
2013-05-11 04:02:00,58.1,54.0,29.82,SW,236,13.0,17.0,85,0.00,,,0.00,0,weatherlink.com 1.10,2013-05-11 08:02:00,
2013-05-11 04:17:00,58.1,54.0,29.81,SSW,212,14.0,18.0,85,0.00,,,0.00,0,weatherlink.com 1.10,2013-05-11 08:17:00,
2013-05-11 04:32:00,58.1,53.0,29.80,SSW,203,7.0,21.0,84,0.00,,,0.00,0,weatherlink.com 1.10,2013-05-11 08:32:00,
2013-05-11 04:47:00,58.4,53.0,29.80,SSW,204,10.0,21.0,83,0.00,,,0.00,0,weatherlink.com 1.10,2013-05-11 08:47:00,
2013-05-11 05:02:00,58.8,53.0,29.80,SSW,199,12.0,17.0,82,0.00,,,0.00,0,weatherlink.com 1.10,2013-05-11 09:02:00,
2013-05-11 05:17:00,58.3,53.0,29.80,SW,230,8.0,17.0,83,0.00,,,0.00,0,weatherlink.com 1.10,2013-05-11 09:17:00,
2013-05-11 05:32:00,58.5,53.0,29.80,WSW,238,4.0,18.0,82,0.00,,,0.00,0,weatherlink.com 1.10,2013-05-11 09:32:00,
2013-05-11 05:47:00,57.8,53.0,29.79,SW,224,6.0,12.0,84,0.00,,,0.00,7,weatherlink.com 1.10,2013-05-11 09:47:00,
2013-05-11 06:02:00,56.9,53.0,29.79,WSW,242,5.0,15.0,86,0.00,,,0.00,14,weatherlink.com 1.10,2013-05-11 10:02:00,
2013-05-11 06:17:00,57.0,53.0,29.79,WNW,290,8.0,22.0,86,0.00,,,0.00,14,weatherlink.com 1.10,2013-05-11 10:17:00,
2013-05-11 06:32:00,56.4,54.0,29.79,SSW,211,15.0,25.0,91,0.01,,,0.01,14,weatherlink.com 1.10,2013-05-11 10:32:00,
2013-05-11 06:47:00,56.8,55.0,29.79,WSW,252,13.0,22.0,92,0.03,,,0.03,19,weatherlink.com 1.10,2013-05-11 10:47:00,
2013-05-11 07:02:00,57.0,55.0,29.78,West,270,10.0,16.0,93,0.05,,,0.05,19,weatherlink.com 1.10,2013-05-11 11:02:00,
2013-05-11 07:17:00,57.5,56.0,29.78,SW,236,4.0,16.0,93,0.07,,,0.07,32,weatherlink.com 1.10,2013-05-11 11:17:00,
2013-05-11 07:32:00,57.3,56.0,29.78,West,267,7.0,16.0,94,0.10,,,0.12,62,weatherlink.com 1.10,2013-05-11 11:32:00,
2013-05-11 07:47:00,57.1,55.0,29.77,WSW,249,17.0,20.0,94,0.09,,,0.12,120,weatherlink.com 1.10,2013-05-11 11:47:00,
2013-05-11 08:02:00,57.8,56.0,29.77,WSW,240,15.0,20.0,95,0.08,,,0.13,165,weatherlink.com 1.10,2013-05-11 12:02:00,
2013-05-11 08:17:00,57.6,56.0,29.77,SW,236,18.0,23.0,94,0.06,,,0.13,199,weatherlink.com 1.10,2013-05-11 12:17:00,
2013-05-11 08:32:00,57.1,56.0,29.76,West,275,12.0,23.0,95,0.01,,,0.13,181,weatherlink.com 1.10,2013-05-11 12:32:00,
2013-05-11 08:47:00,57.4,56.0,29.76,SSW,207,10.0,22.0,94,0.01,,,0.13,388,weatherlink.com 1.10,2013-05-11 12:47:00,
2013-05-11 09:02:00,57.3,56.0,29.77,SSW,211,13.0,24.0,94,0.00,,,0.13,475,weatherlink.com 1.10,2013-05-11 13:02:00,
2013-05-11 09:18:00,58.3,56.0,29.75,SSW,207,17.0,18.0,93,0.00,,,0.13,288,weatherlink.com 1.10,2013-05-11 13:18:00,
2013-05-11 09:33:00,59.4,57.0,29.75,West,268,18.0,18.0,91,0.00,,,0.13,297,weatherlink.com 1.10,2013-05-11 13:33:00,
2013-05-11 09:48:00,59.6,57.0,29.75,West,261,12.0,26.0,90,0.00,,,0.13,487,weatherlink.com 1.10,2013-05-11 13:48:00,
2013-05-11 10:03:00,59.9,57.0,29.75,SW,236,11.0,27.0,89,0.00,,,0.13,497,weatherlink.com 1.10,2013-05-11 14:03:00,
2013-05-11 10:18:00,61.1,57.0,29.75,SW,229,13.0,28.0,87,0.00,,,0.13,628,weatherlink.com 1.10,2013-05-11 14:18:00,
2013-05-11 10:33:00,61.1,57.0,29.74,SW,226,12.0,27.0,87,0.00,,,0.13,390,weatherlink.com 1.10,2013-05-11 14:33:00,
2013-05-11 10:48:00,62.6,58.0,29.74,WSW,250,8.0,20.0,84,0.00,,,0.13,626,weatherlink.com 1.10,2013-05-11 14:48:00,
2013-05-11 11:03:00,62.8,58.0,29.74,WSW,254,14.0,25.0,84,0.00,,,0.13,380,weatherlink.com 1.10,2013-05-11 15:03:00,
2013-05-11 11:18:00,61.6,57.0,29.74,SSW,210,12.0,21.0,86,0.00,,,0.13,272,weatherlink.com 1.10,2013-05-11 15:18:00,
2013-05-11 11:33:00,61.7,58.0,29.74,SW,218,6.0,20.0,88,0.00,,,0.13,369,weatherlink.com 1.10,2013-05-11 15:33:00,
2013-05-11 11:48:00,62.0,58.0,29.74,WSW,240,11.0,19.0,87,0.00,,,0.13,244,weatherlink.com 1.10,2013-05-11 15:48:00,
2013-05-11 12:03:00,61.9,58.0,29.74,SW,220,18.0,22.0,88,0.00,,,0.13,330,weatherlink.com 1.10,2013-05-11 16:03:00,
2013-05-11 12:18:00,62.2,58.0,29.73,WSW,242,11.0,25.0,87,0.00,,,0.13,427,weatherlink.com 1.10,2013-05-11 16:18:00,
2013-05-11 12:33:00,62.3,58.0,29.73,SSW,203,11.0,24.0,86,0.00,,,0.13,223,weatherlink.com 1.10,2013-05-11 16:33:00,
2013-05-11 12:48:00,62.1,58.0,29.73,SW,218,7.0,23.0,87,0.00,,,0.13,274,weatherlink.com 1.10,2013-05-11 16:48:00,
2013-05-11 13:03:00,61.8,58.0,29.73,WSW,253,18.0,22.0,88,0.00,,,0.13,155,weatherlink.com 1.10,2013-05-11 17:03:00,
2013-05-11 13:18:00,61.5,58.0,29.73,SW,214,18.0,22.0,88,0.00,,,0.13,91,weatherlink.com 1.10,2013-05-11 17:18:00,
2013-05-11 13:33:00,61.5,58.0,29.73,West,260,12.0,25.0,89,0.00,,,0.13,163,weatherlink.com 1.10,2013-05-11 17:33:00,
2013-05-11 13:48:00,61.9,58.0,29.72,West,265,14.0,25.0,88,0.00,,,0.13,334,weatherlink.com 1.10,2013-05-11 17:48:00,
2013-05-11 14:03:00,61.3,58.0,29.72,SW,233,7.0,24.0,90,0.00,,,0.13,294,weatherlink.com 1.10,2013-05-11 18:03:00,
2013-05-11 14:18:00,61.1,59.0,29.71,SW,218,13.0,20.0,91,0.00,,,0.13,232,weatherlink.com 1.10,2013-05-11 18:18:00,
2013-05-11 14:33:00,59.8,58.0,29.71,WNW,282,11.0,18.0,95,0.06,,,0.19,72,weatherlink.com 1.10,2013-05-11 18:33:00,
2013-05-11 14:48:00,59.7,59.0,29.71,SSW,205,19.0,22.0,96,0.14,,,0.27,104,weatherlink.com 1.10,2013-05-11 18:48:00,
2013-05-11 15:03:00,59.9,59.0,29.70,SSE,158,9.0,24.0,96,0.16,,,0.29,91,weatherlink.com 1.10,2013-05-11 19:03:00,
2013-05-11 15:18:00,60.2,59.0,29.69,SW,228,13.0,39.0,96,0.17,,,0.30,267,weatherlink.com 1.10,2013-05-11 19:18:00,
2013-05-11 15:33:00,60.8,60.0,29.69,SSW,196,16.0,26.0,96,0.11,,,0.30,306,weatherlink.com 1.10,2013-05-11 19:33:00,
2013-05-11 15:48:00,61.2,60.0,29.69,SSW,208,6.0,30.0,94,0.03,,,0.30,276,weatherlink.com 1.10,2013-05-11 19:48:00,
2013-05-11 16:03:00,61.6,60.0,29.68,SW,223,17.0,24.0,93,0.01,,,0.30,320,weatherlink.com 1.10,2013-05-11 20:03:00,
2013-05-11 16:18:00,61.7,60.0,29.68,SW,236,14.0,26.0,93,0.00,,,0.30,345,weatherlink.com 1.10,2013-05-11 20:18:00,
2013-05-11 16:33:00,61.6,60.0,29.68,SSW,209,10.0,26.0,93,0.00,,,0.30,141,weatherlink.com 1.10,2013-05-11 20:33:00,
2013-05-11 16:48:00,61.0,59.0,29.68,West,267,13.0,25.0,94,0.00,,,0.30,90,weatherlink.com 1.10,2013-05-11 20:48:00,
2013-05-11 17:03:00,60.7,59.0,29.68,SW,217,16.0,32.0,95,0.02,,,0.32,84,weatherlink.com 1.10,2013-05-11 21:03:00,
2013-05-11 17:18:00,60.5,59.0,29.67,SW,221,16.0,30.0,95,0.03,,,0.33,42,weatherlink.com 1.10,2013-05-11 21:18:00,
2013-05-11 17:33:00,60.5,59.0,29.68,SW,226,17.0,29.0,95,0.04,,,0.34,104,weatherlink.com 1.10,2013-05-11 21:33:00,
2013-05-11 17:48:00,60.4,59.0,29.68,WSW,251,20.0,30.0,94,0.04,,,0.34,49,weatherlink.com 1.10,2013-05-11 21:48:00,
2013-05-11 18:03:00,60.0,59.0,29.68,West,266,13.0,30.0,95,0.04,,,0.36,18,weatherlink.com 1.10,2013-05-11 22:03:00,
2013-05-11 18:18:00,60.0,59.0,29.68,WSW,239,18.0,31.0,95,0.05,,,0.38,19,weatherlink.com 1.10,2013-05-11 22:18:00,
2013-05-11 18:33:00,59.5,58.0,29.68,WSW,237,25.0,29.0,95,0.06,,,0.40,21,weatherlink.com 1.10,2013-05-11 22:33:00,
2013-05-11 18:48:00,59.2,58.0,29.68,West,262,12.0,28.0,94,0.08,,,0.42,19,weatherlink.com 1.10,2013-05-11 22:48:00,
2013-05-11 19:03:00,59.2,58.0,29.68,WSW,242,19.0,31.0,94,0.06,,,0.42,16,weatherlink.com 1.10,2013-05-11 23:03:00,
2013-05-11 19:18:00,59.1,57.0,29.67,South,190,15.0,29.0,94,0.04,,,0.42,9,weatherlink.com 1.10,2013-05-11 23:18:00,
2013-05-11 19:33:00,59.0,57.0,29.69,SSW,201,19.0,32.0,94,0.03,,,0.43,7,weatherlink.com 1.10,2013-05-11 23:33:00,
2013-05-11 19:48:00,58.9,58.0,29.70,SW,223,15.0,29.0,95,0.01,,,0.43,9,weatherlink.com 1.10,2013-05-11 23:48:00,
2013-05-11 20:03:00,58.5,57.0,29.70,SSW,200,14.0,29.0,95,0.01,,,0.43,0,weatherlink.com 1.10,2013-05-12 00:03:00,
2013-05-11 20:18:00,58.4,57.0,29.70,WSW,240,16.0,32.0,95,0.01,,,0.43,0,weatherlink.com 1.10,2013-05-12 00:18:00,
2013-05-11 20:33:00,58.5,57.0,29.71,WSW,246,22.0,29.0,95,0.00,,,0.43,0,weatherlink.com 1.10,2013-05-12 00:33:00,
2013-05-11 20:48:00,58.7,57.0,29.70,West,259,17.0,29.0,94,0.00,,,0.43,0,weatherlink.com 1.10,2013-05-12 00:48:00,
2013-05-11 21:03:00,58.6,57.0,29.70,WSW,247,16.0,27.0,94,0.00,,,0.43,0,weatherlink.com 1.10,2013-05-12 01:03:00,
2013-05-11 21:18:00,58.4,57.0,29.70,SW,223,16.0,26.0,94,0.00,,,0.43,0,weatherlink.com 1.10,2013-05-12 01:18:00,
2013-05-11 21:33:00,58.5,57.0,29.69,West,269,15.0,31.0,93,0.00,,,0.43,0,weatherlink.com 1.10,2013-05-12 01:33:00,
2013-05-11 21:48:00,58.4,56.0,29.69,SW,219,9.0,25.0,93,0.00,,,0.43,0,weatherlink.com 1.10,2013-05-12 01:48:00,
2013-05-11 22:03:00,58.4,56.0,29.70,SSW,199,7.0,21.0,93,0.00,,,0.43,0,weatherlink.com 1.10,2013-05-12 02:03:00,
2013-05-11 22:18:00,58.4,56.0,29.70,WSW,237,14.0,25.0,92,0.00,,,0.43,0,weatherlink.com 1.10,2013-05-12 02:18:00,
2013-05-11 22:33:00,58.4,56.0,29.71,SW,225,12.0,20.0,92,0.00,,,0.43,0,weatherlink.com 1.10,2013-05-12 02:33:00,
2013-05-11 22:48:00,58.5,57.0,29.70,WSW,255,9.0,19.0,93,0.00,,,0.43,0,weatherlink.com 1.10,2013-05-12 02:48:00,
2013-05-11 23:03:00,58.3,57.0,29.70,WSW,255,7.0,19.0,94,0.00,,,0.43,0,weatherlink.com 1.10,2013-05-12 03:03:00,
2013-05-11 23:18:00,58.6,56.0,29.70,WSW,238,10.0,17.0,92,0.00,,,0.43,0,weatherlink.com 1.10,2013-05-12 03:18:00,
2013-05-11 23:33:00,58.2,56.0,29.70,West,266,4.0,18.0,93,0.00,,,0.43,0,weatherlink.com 1.10,2013-05-12 03:33:00,
2013-05-11 23:48:00,57.9,56.0,29.69,WSW,252,8.0,16.0,94,0.00,,,0.43,0,weatherlink.com 1.10,2013-05-12 03:48:00,